sensor_id;sensor_type;location;lat;lon;timestamp;P1;durP1;ratioP1;P2;durP2;ratioP2
71490;SDS011;59307;50.060;9.150;2023-06-22T00:01:17;12.40;;;7.07;;
71490;SDS011;59307;50.060;9.150;2023-06-22T00:03:42;10.20;;;7.10;;
71490;SDS011;59307;50.060;9.150;2023-06-22T00:06:07;10.80;;;7.50;;
71490;SDS011;59307;50.060;9.150;2023-06-22T00:08:32;11.80;;;7.10;;
71490;SDS011;59307;50.060;9.150;2023-06-22T00:10:57;12.20;;;7.37;;
71490;SDS011;59307;50.060;9.150;2023-06-22T00:13:23;11.07;;;7.50;;
71490;SDS011;59307;50.060;9.150;2023-06-22T00:15:48;10.13;;;7.20;;
71490;SDS011;59307;50.060;9.150;2023-06-22T00:18:13;10.40;;;7.10;;
71490;SDS011;59307;50.060;9.150;2023-06-22T00:20:38;11.03;;;7.17;;
71490;SDS011;59307;50.060;9.150;2023-06-22T00:23:04;10.47;;;7.07;;
71490;SDS011;59307;50.060;9.150;2023-06-22T00:25:34;12.88;;;7.60;;
71490;SDS011;59307;50.060;9.150;2023-06-22T00:27:59;10.02;;;7.30;;
71490;SDS011;59307;50.060;9.150;2023-06-22T00:30:24;10.70;;;7.53;;
71490;SDS011;59307;50.060;9.150;2023-06-22T00:32:49;15.30;;;7.53;;
71490;SDS011;59307;50.060;9.150;2023-06-22T00:35:14;10.33;;;7.13;;
71490;SDS011;59307;50.060;9.150;2023-06-22T00:37:40;10.63;;;6.83;;
71490;SDS011;59307;50.060;9.150;2023-06-22T00:40:10;11.30;;;7.43;;
71490;SDS011;59307;50.060;9.150;2023-06-22T00:42:40;11.32;;;7.28;;
71490;SDS011;59307;50.060;9.150;2023-06-22T00:45:06;10.63;;;7.05;;
71490;SDS011;59307;50.060;9.150;2023-06-22T00:47:31;11.32;;;6.80;;
71490;SDS011;59307;50.060;9.150;2023-06-22T00:49:57;11.43;;;7.00;;
71490;SDS011;59307;50.060;9.150;2023-06-22T00:52:22;12.88;;;7.32;;
71490;SDS011;59307;50.060;9.150;2023-06-22T00:54:52;11.68;;;7.13;;
71490;SDS011;59307;50.060;9.150;2023-06-22T00:57:17;10.50;;;7.23;;
71490;SDS011;59307;50.060;9.150;2023-06-22T00:59:43;10.77;;;6.85;;
71490;SDS011;59307;50.060;9.150;2023-06-22T01:02:09;10.50;;;7.30;;
71490;SDS011;59307;50.060;9.150;2023-06-22T01:04:35;10.40;;;7.10;;
71490;SDS011;59307;50.060;9.150;2023-06-22T01:07:22;11.45;;;6.95;;
71490;SDS011;59307;50.060;9.150;2023-06-22T01:12:15;13.93;;;6.72;;
71490;SDS011;59307;50.060;9.150;2023-06-22T01:14:43;11.73;;;6.80;;
71490;SDS011;59307;50.060;9.150;2023-06-22T01:17:09;9.35;;;6.70;;
71490;SDS011;59307;50.060;9.150;2023-06-22T01:19:44;10.15;;;6.57;;
71490;SDS011;59307;50.060;9.150;2023-06-22T01:22:11;13.02;;;7.30;;
71490;SDS011;59307;50.060;9.150;2023-06-22T01:27:22;11.33;;;6.53;;
71490;SDS011;59307;50.060;9.150;2023-06-22T01:29:50;11.60;;;6.70;;
71490;SDS011;59307;50.060;9.150;2023-06-22T01:32:16;11.80;;;6.50;;
71490;SDS011;59307;50.060;9.150;2023-06-22T01:34:41;10.47;;;6.80;;
71490;SDS011;59307;50.060;9.150;2023-06-22T01:37:07;11.93;;;7.00;;
71490;SDS011;59307;50.060;9.150;2023-06-22T01:39:33;11.53;;;7.30;;
71490;SDS011;59307;50.060;9.150;2023-06-22T01:41:58;10.70;;;6.70;;
71490;SDS011;59307;50.060;9.150;2023-06-22T01:44:24;10.20;;;6.90;;
71490;SDS011;59307;50.060;9.150;2023-06-22T01:46:50;13.05;;;8.07;;
71490;SDS011;59307;50.060;9.150;2023-06-22T01:49:16;14.87;;;8.23;;
71490;SDS011;59307;50.060;9.150;2023-06-22T01:51:41;13.80;;;7.80;;
71490;SDS011;59307;50.060;9.150;2023-06-22T01:54:06;13.90;;;8.70;;
71490;SDS011;59307;50.060;9.150;2023-06-22T01:56:33;13.43;;;8.52;;
71490;SDS011;59307;50.060;9.150;2023-06-22T02:01:28;14.23;;;7.77;;
71490;SDS011;59307;50.060;9.150;2023-06-22T02:04:00;12.55;;;8.38;;
71490;SDS011;59307;50.060;9.150;2023-06-22T02:06:29;13.98;;;8.75;;
71490;SDS011;59307;50.060;9.150;2023-06-22T02:09:00;14.18;;;9.07;;
71490;SDS011;59307;50.060;9.150;2023-06-22T02:11:26;12.63;;;8.52;;
71490;SDS011;59307;50.060;9.150;2023-06-22T02:13:53;12.17;;;8.23;;
71490;SDS011;59307;50.060;9.150;2023-06-22T02:16:18;15.38;;;8.32;;
71490;SDS011;59307;50.060;9.150;2023-06-22T02:18:47;12.70;;;8.77;;
71490;SDS011;59307;50.060;9.150;2023-06-22T02:21:12;11.75;;;8.40;;
71490;SDS011;59307;50.060;9.150;2023-06-22T02:23:37;13.07;;;8.83;;
71490;SDS011;59307;50.060;9.150;2023-06-22T02:26:03;12.77;;;9.20;;
71490;SDS011;59307;50.060;9.150;2023-06-22T02:28:28;14.00;;;8.67;;
71490;SDS011;59307;50.060;9.150;2023-06-22T02:30:53;13.97;;;8.70;;
71490;SDS011;59307;50.060;9.150;2023-06-22T02:33:18;13.33;;;8.50;;
71490;SDS011;59307;50.060;9.150;2023-06-22T02:35:44;12.93;;;8.98;;
71490;SDS011;59307;50.060;9.150;2023-06-22T02:38:12;15.43;;;8.40;;
71490;SDS011;59307;50.060;9.150;2023-06-22T02:40:37;11.23;;;7.97;;
71490;SDS011;59307;50.060;9.150;2023-06-22T02:43:03;12.57;;;8.47;;
71490;SDS011;59307;50.060;9.150;2023-06-22T02:45:28;12.13;;;8.67;;
71490;SDS011;59307;50.060;9.150;2023-06-22T02:47:53;13.80;;;9.10;;
71490;SDS011;59307;50.060;9.150;2023-06-22T02:50:18;13.87;;;9.20;;
71490;SDS011;59307;50.060;9.150;2023-06-22T02:52:44;15.90;;;8.63;;
71490;SDS011;59307;50.060;9.150;2023-06-22T02:55:09;12.90;;;8.87;;
71490;SDS011;59307;50.060;9.150;2023-06-22T02:57:34;16.43;;;9.87;;
71490;SDS011;59307;50.060;9.150;2023-06-22T02:59:59;11.87;;;8.27;;
71490;SDS011;59307;50.060;9.150;2023-06-22T03:02:24;11.33;;;8.20;;
71490;SDS011;59307;50.060;9.150;2023-06-22T03:04:51;12.93;;;8.25;;
71490;SDS011;59307;50.060;9.150;2023-06-22T03:07:18;11.23;;;8.32;;
71490;SDS011;59307;50.060;9.150;2023-06-22T03:09:43;13.23;;;9.00;;
71490;SDS011;59307;50.060;9.150;2023-06-22T03:12:08;11.63;;;8.60;;
71490;SDS011;59307;50.060;9.150;2023-06-22T03:14:34;13.57;;;9.03;;
71490;SDS011;59307;50.060;9.150;2023-06-22T03:16:59;11.30;;;7.83;;
71490;SDS011;59307;50.060;9.150;2023-06-22T03:19:28;12.23;;;8.43;;
71490;SDS011;59307;50.060;9.150;2023-06-22T03:21:54;11.82;;;8.63;;
71490;SDS011;59307;50.060;9.150;2023-06-22T03:24:19;12.47;;;8.73;;
71490;SDS011;59307;50.060;9.150;2023-06-22T03:26:45;12.80;;;9.33;;
71490;SDS011;59307;50.060;9.150;2023-06-22T03:29:11;12.38;;;9.00;;
71490;SDS011;59307;50.060;9.150;2023-06-22T03:31:36;13.00;;;9.50;;
71490;SDS011;59307;50.060;9.150;2023-06-22T03:34:02;13.90;;;9.33;;
71490;SDS011;59307;50.060;9.150;2023-06-22T03:36:27;12.23;;;8.93;;
71490;SDS011;59307;50.060;9.150;2023-06-22T03:38:52;13.10;;;8.73;;
71490;SDS011;59307;50.060;9.150;2023-06-22T03:41:17;13.43;;;9.07;;
71490;SDS011;59307;50.060;9.150;2023-06-22T03:43:43;14.30;;;9.07;;
71490;SDS011;59307;50.060;9.150;2023-06-22T03:46:08;15.27;;;8.97;;
71490;SDS011;59307;50.060;9.150;2023-06-22T03:48:33;11.97;;;8.77;;
71490;SDS011;59307;50.060;9.150;2023-06-22T03:51:01;13.63;;;9.00;;
71490;SDS011;59307;50.060;9.150;2023-06-22T03:53:27;12.47;;;8.80;;
71490;SDS011;59307;50.060;9.150;2023-06-22T03:55:53;14.43;;;9.27;;
71490;SDS011;59307;50.060;9.150;2023-06-22T03:58:18;13.85;;;9.20;;
71490;SDS011;59307;50.060;9.150;2023-06-22T04:00:50;14.30;;;9.07;;
71490;SDS011;59307;50.060;9.150;2023-06-22T04:03:16;12.90;;;8.50;;
71490;SDS011;59307;50.060;9.150;2023-06-22T04:05:43;15.23;;;10.00;;
71490;SDS011;59307;50.060;9.150;2023-06-22T04:08:08;11.97;;;8.60;;
71490;SDS011;59307;50.060;9.150;2023-06-22T04:10:33;13.57;;;8.97;;
71490;SDS011;59307;50.060;9.150;2023-06-22T04:12:59;13.97;;;9.27;;
71490;SDS011;59307;50.060;9.150;2023-06-22T04:15:24;13.33;;;9.37;;
71490;SDS011;59307;50.060;9.150;2023-06-22T04:17:49;13.33;;;9.30;;
71490;SDS011;59307;50.060;9.150;2023-06-22T04:20:15;12.43;;;8.73;;
71490;SDS011;59307;50.060;9.150;2023-06-22T04:22:40;12.17;;;9.13;;
71490;SDS011;59307;50.060;9.150;2023-06-22T04:25:05;13.53;;;9.17;;
71490;SDS011;59307;50.060;9.150;2023-06-22T04:27:32;14.18;;;9.90;;
71490;SDS011;59307;50.060;9.150;2023-06-22T04:29:57;14.40;;;9.13;;
71490;SDS011;59307;50.060;9.150;2023-06-22T04:32:25;15.57;;;9.45;;
71490;SDS011;59307;50.060;9.150;2023-06-22T04:34:50;13.93;;;9.37;;
71490;SDS011;59307;50.060;9.150;2023-06-22T04:37:17;14.90;;;9.27;;
71490;SDS011;59307;50.060;9.150;2023-06-22T04:39:42;12.63;;;9.13;;
71490;SDS011;59307;50.060;9.150;2023-06-22T04:42:08;13.77;;;9.27;;
71490;SDS011;59307;50.060;9.150;2023-06-22T04:44:33;13.57;;;9.93;;
71490;SDS011;59307;50.060;9.150;2023-06-22T04:46:59;13.80;;;9.20;;
71490;SDS011;59307;50.060;9.150;2023-06-22T04:49:34;30.13;;;11.25;;
71490;SDS011;59307;50.060;9.150;2023-06-22T04:52:06;16.05;;;8.88;;
71490;SDS011;59307;50.060;9.150;2023-06-22T04:54:31;15.87;;;9.53;;
71490;SDS011;59307;50.060;9.150;2023-06-22T04:56:58;14.85;;;9.30;;
71490;SDS011;59307;50.060;9.150;2023-06-22T04:59:23;17.03;;;9.50;;
71490;SDS011;59307;50.060;9.150;2023-06-22T05:01:53;12.45;;;9.02;;
71490;SDS011;59307;50.060;9.150;2023-06-22T05:04:18;12.43;;;8.50;;
71490;SDS011;59307;50.060;9.150;2023-06-22T05:06:44;13.13;;;9.10;;
71490;SDS011;59307;50.060;9.150;2023-06-22T05:09:10;15.35;;;9.05;;
71490;SDS011;59307;50.060;9.150;2023-06-22T05:11:37;15.25;;;9.10;;
71490;SDS011;59307;50.060;9.150;2023-06-22T05:14:02;14.23;;;8.87;;
71490;SDS011;59307;50.060;9.150;2023-06-22T05:16:27;12.73;;;8.93;;
71490;SDS011;59307;50.060;9.150;2023-06-22T05:18:53;12.60;;;8.67;;
71490;SDS011;59307;50.060;9.150;2023-06-22T05:21:21;13.65;;;8.60;;
71490;SDS011;59307;50.060;9.150;2023-06-22T05:23:46;12.37;;;8.23;;
71490;SDS011;59307;50.060;9.150;2023-06-22T05:26:11;12.27;;;9.10;;
71490;SDS011;59307;50.060;9.150;2023-06-22T05:28:36;14.33;;;8.87;;
71490;SDS011;59307;50.060;9.150;2023-06-22T05:31:01;13.37;;;8.63;;
71490;SDS011;59307;50.060;9.150;2023-06-22T05:33:27;12.10;;;8.80;;
71490;SDS011;59307;50.060;9.150;2023-06-22T05:35:52;12.03;;;8.70;;
71490;SDS011;59307;50.060;9.150;2023-06-22T05:38:17;12.27;;;8.70;;
71490;SDS011;59307;50.060;9.150;2023-06-22T05:40:42;13.53;;;8.37;;
71490;SDS011;59307;50.060;9.150;2023-06-22T05:43:07;11.90;;;8.17;;
71490;SDS011;59307;50.060;9.150;2023-06-22T05:45:33;10.43;;;7.85;;
71490;SDS011;59307;50.060;9.150;2023-06-22T05:47:58;12.87;;;8.27;;
71490;SDS011;59307;50.060;9.150;2023-06-22T05:50:23;14.77;;;9.00;;
71490;SDS011;59307;50.060;9.150;2023-06-22T05:52:48;10.83;;;7.97;;
71490;SDS011;59307;50.060;9.150;2023-06-22T05:55:13;11.33;;;8.10;;
71490;SDS011;59307;50.060;9.150;2023-06-22T05:57:40;12.50;;;7.50;;
71490;SDS011;59307;50.060;9.150;2023-06-22T06:00:05;11.37;;;8.03;;
71490;SDS011;59307;50.060;9.150;2023-06-22T06:02:35;11.63;;;7.53;;
71490;SDS011;59307;50.060;9.150;2023-06-22T06:05:00;11.70;;;8.03;;
71490;SDS011;59307;50.060;9.150;2023-06-22T06:07:27;12.05;;;8.18;;
71490;SDS011;59307;50.060;9.150;2023-06-22T06:09:52;12.07;;;7.90;;
71490;SDS011;59307;50.060;9.150;2023-06-22T06:12:17;11.50;;;7.90;;
71490;SDS011;59307;50.060;9.150;2023-06-22T06:14:43;12.40;;;8.23;;
71490;SDS011;59307;50.060;9.150;2023-06-22T06:17:08;11.73;;;8.23;;
71490;SDS011;59307;50.060;9.150;2023-06-22T06:19:33;11.27;;;8.40;;
71490;SDS011;59307;50.060;9.150;2023-06-22T06:21:58;10.47;;;7.50;;
71490;SDS011;59307;50.060;9.150;2023-06-22T06:24:24;12.20;;;8.40;;
71490;SDS011;59307;50.060;9.150;2023-06-22T06:26:49;12.03;;;7.23;;
71490;SDS011;59307;50.060;9.150;2023-06-22T06:29:14;13.23;;;7.43;;
71490;SDS011;59307;50.060;9.150;2023-06-22T06:31:41;11.37;;;6.87;;
71490;SDS011;59307;50.060;9.150;2023-06-22T06:34:06;11.40;;;7.43;;
71490;SDS011;59307;50.060;9.150;2023-06-22T06:36:31;10.90;;;7.35;;
71490;SDS011;59307;50.060;9.150;2023-06-22T06:38:57;9.37;;;6.90;;
71490;SDS011;59307;50.060;9.150;2023-06-22T06:41:22;11.80;;;7.80;;
71490;SDS011;59307;50.060;9.150;2023-06-22T06:43:48;11.30;;;7.50;;
71490;SDS011;59307;50.060;9.150;2023-06-22T06:46:13;11.43;;;7.80;;
71490;SDS011;59307;50.060;9.150;2023-06-22T06:48:38;10.27;;;7.00;;
71490;SDS011;59307;50.060;9.150;2023-06-22T06:51:04;12.05;;;7.90;;
71490;SDS011;59307;50.060;9.150;2023-06-22T06:53:30;11.10;;;8.03;;
71490;SDS011;59307;50.060;9.150;2023-06-22T06:55:55;10.63;;;7.90;;
71490;SDS011;59307;50.060;9.150;2023-06-22T06:58:20;12.40;;;7.60;;
71490;SDS011;59307;50.060;9.150;2023-06-22T07:00:45;10.50;;;7.63;;
71490;SDS011;59307;50.060;9.150;2023-06-22T07:03:10;10.83;;;7.83;;
71490;SDS011;59307;50.060;9.150;2023-06-22T07:05:36;10.43;;;7.50;;
71490;SDS011;59307;50.060;9.150;2023-06-22T07:08:01;10.50;;;8.10;;
71490;SDS011;59307;50.060;9.150;2023-06-22T07:10:26;12.15;;;8.20;;
71490;SDS011;59307;50.060;9.150;2023-06-22T07:12:51;10.20;;;7.60;;
71490;SDS011;59307;50.060;9.150;2023-06-22T07:15:17;11.50;;;7.23;;
71490;SDS011;59307;50.060;9.150;2023-06-22T07:17:42;12.67;;;7.80;;
71490;SDS011;59307;50.060;9.150;2023-06-22T07:20:07;9.57;;;6.90;;
71490;SDS011;59307;50.060;9.150;2023-06-22T07:22:40;12.00;;;7.78;;
71490;SDS011;59307;50.060;9.150;2023-06-22T07:25:06;11.97;;;7.90;;
71490;SDS011;59307;50.060;9.150;2023-06-22T07:27:35;12.40;;;7.57;;
71490;SDS011;59307;50.060;9.150;2023-06-22T07:30:02;12.25;;;8.27;;
71490;SDS011;59307;50.060;9.150;2023-06-22T07:32:28;11.93;;;7.83;;
71490;SDS011;59307;50.060;9.150;2023-06-22T07:34:55;10.55;;;7.32;;
71490;SDS011;59307;50.060;9.150;2023-06-22T07:37:21;13.57;;;7.60;;
71490;SDS011;59307;50.060;9.150;2023-06-22T07:39:46;11.57;;;8.07;;
71490;SDS011;59307;50.060;9.150;2023-06-22T07:42:11;10.30;;;7.33;;
71490;SDS011;59307;50.060;9.150;2023-06-22T07:44:36;10.70;;;8.10;;
71490;SDS011;59307;50.060;9.150;2023-06-22T07:47:01;11.60;;;7.50;;
71490;SDS011;59307;50.060;9.150;2023-06-22T07:49:27;12.57;;;7.87;;
71490;SDS011;59307;50.060;9.150;2023-06-22T07:51:53;11.00;;;7.40;;
71490;SDS011;59307;50.060;9.150;2023-06-22T07:54:18;12.57;;;7.60;;
71490;SDS011;59307;50.060;9.150;2023-06-22T07:56:43;9.60;;;7.30;;
71490;SDS011;59307;50.060;9.150;2023-06-22T07:59:08;11.67;;;7.60;;
71490;SDS011;59307;50.060;9.150;2023-06-22T08:01:33;12.83;;;7.73;;
71490;SDS011;59307;50.060;9.150;2023-06-22T08:03:58;13.90;;;8.13;;
71490;SDS011;59307;50.060;9.150;2023-06-22T08:06:24;9.47;;;6.93;;
71490;SDS011;59307;50.060;9.150;2023-06-22T08:08:49;11.43;;;7.23;;
71490;SDS011;59307;50.060;9.150;2023-06-22T08:11:14;10.00;;;7.07;;
71490;SDS011;59307;50.060;9.150;2023-06-22T08:13:39;9.93;;;7.00;;
71490;SDS011;59307;50.060;9.150;2023-06-22T08:16:05;11.87;;;7.67;;
71490;SDS011;59307;50.060;9.150;2023-06-22T08:18:30;10.13;;;6.90;;
71490;SDS011;59307;50.060;9.150;2023-06-22T08:20:55;10.27;;;7.00;;
71490;SDS011;59307;50.060;9.150;2023-06-22T08:23:20;13.00;;;7.17;;
71490;SDS011;59307;50.060;9.150;2023-06-22T08:25:45;9.60;;;7.03;;
71490;SDS011;59307;50.060;9.150;2023-06-22T08:28:11;10.27;;;6.20;;
71490;SDS011;59307;50.060;9.150;2023-06-22T08:30:36;8.77;;;6.77;;
71490;SDS011;59307;50.060;9.150;2023-06-22T08:33:01;10.70;;;7.10;;
71490;SDS011;59307;50.060;9.150;2023-06-22T08:35:26;9.83;;;7.03;;
71490;SDS011;59307;50.060;9.150;2023-06-22T08:37:52;9.90;;;6.70;;
71490;SDS011;59307;50.060;9.150;2023-06-22T08:40:20;9.30;;;7.03;;
71490;SDS011;59307;50.060;9.150;2023-06-22T08:42:46;10.53;;;6.97;;
71490;SDS011;59307;50.060;9.150;2023-06-22T08:45:11;10.23;;;6.77;;
71490;SDS011;59307;50.060;9.150;2023-06-22T08:47:37;11.70;;;6.60;;
71490;SDS011;59307;50.060;9.150;2023-06-22T08:50:02;10.93;;;7.10;;
71490;SDS011;59307;50.060;9.150;2023-06-22T08:52:30;10.48;;;6.53;;
71490;SDS011;59307;50.060;9.150;2023-06-22T08:54:56;9.47;;;6.90;;
71490;SDS011;59307;50.060;9.150;2023-06-22T08:57:21;9.50;;;7.00;;
71490;SDS011;59307;50.060;9.150;2023-06-22T08:59:47;13.20;;;6.80;;
71490;SDS011;59307;50.060;9.150;2023-06-22T09:02:12;10.47;;;7.10;;
71490;SDS011;59307;50.060;9.150;2023-06-22T09:04:37;8.70;;;6.77;;
71490;SDS011;59307;50.060;9.150;2023-06-22T09:07:02;10.33;;;6.83;;
71490;SDS011;59307;50.060;9.150;2023-06-22T09:09:28;11.10;;;7.20;;
71490;SDS011;59307;50.060;9.150;2023-06-22T09:11:53;10.93;;;6.93;;
71490;SDS011;59307;50.060;9.150;2023-06-22T09:14:18;9.27;;;6.93;;
71490;SDS011;59307;50.060;9.150;2023-06-22T09:16:43;9.50;;;6.90;;
71490;SDS011;59307;50.060;9.150;2023-06-22T09:19:10;8.90;;;6.53;;
71490;SDS011;59307;50.060;9.150;2023-06-22T09:21:35;9.20;;;6.57;;
71490;SDS011;59307;50.060;9.150;2023-06-22T09:24:01;13.27;;;7.20;;
71490;SDS011;59307;50.060;9.150;2023-06-22T09:26:26;11.33;;;7.60;;
71490;SDS011;59307;50.060;9.150;2023-06-22T09:28:51;10.83;;;7.20;;
71490;SDS011;59307;50.060;9.150;2023-06-22T09:31:17;24.97;;;7.70;;
71490;SDS011;59307;50.060;9.150;2023-06-22T09:33:42;8.93;;;6.57;;
71490;SDS011;59307;50.060;9.150;2023-06-22T09:36:07;11.23;;;7.27;;
71490;SDS011;59307;50.060;9.150;2023-06-22T09:38:36;9.50;;;7.13;;
71490;SDS011;59307;50.060;9.150;2023-06-22T09:41:01;10.93;;;7.30;;
71490;SDS011;59307;50.060;9.150;2023-06-22T09:43:27;9.73;;;6.93;;
71490;SDS011;59307;50.060;9.150;2023-06-22T09:45:52;9.53;;;6.70;;
71490;SDS011;59307;50.060;9.150;2023-06-22T09:48:17;10.47;;;7.30;;
71490;SDS011;59307;50.060;9.150;2023-06-22T09:50:42;15.32;;;8.18;;
71490;SDS011;59307;50.060;9.150;2023-06-22T09:53:07;10.03;;;7.37;;
71490;SDS011;59307;50.060;9.150;2023-06-22T09:55:33;10.93;;;6.97;;
71490;SDS011;59307;50.060;9.150;2023-06-22T09:57:58;12.90;;;7.47;;
71490;SDS011;59307;50.060;9.150;2023-06-22T10:00:23;10.97;;;7.20;;
71490;SDS011;59307;50.060;9.150;2023-06-22T10:02:48;12.97;;;7.57;;
71490;SDS011;59307;50.060;9.150;2023-06-22T10:05:14;11.30;;;7.90;;
71490;SDS011;59307;50.060;9.150;2023-06-22T10:07:39;11.30;;;7.00;;
71490;SDS011;59307;50.060;9.150;2023-06-22T10:10:07;10.93;;;7.20;;
71490;SDS011;59307;50.060;9.150;2023-06-22T10:12:32;10.97;;;6.87;;
71490;SDS011;59307;50.060;9.150;2023-06-22T10:14:58;9.63;;;7.17;;
71490;SDS011;59307;50.060;9.150;2023-06-22T10:17:23;10.33;;;7.10;;
71490;SDS011;59307;50.060;9.150;2023-06-22T10:19:48;10.80;;;7.30;;
71490;SDS011;59307;50.060;9.150;2023-06-22T10:22:13;12.17;;;7.37;;
71490;SDS011;59307;50.060;9.150;2023-06-22T10:24:38;11.03;;;7.13;;
71490;SDS011;59307;50.060;9.150;2023-06-22T10:27:09;10.07;;;7.15;;
71490;SDS011;59307;50.060;9.150;2023-06-22T10:29:34;10.27;;;6.80;;
71490;SDS011;59307;50.060;9.150;2023-06-22T10:31:59;11.97;;;7.00;;
71490;SDS011;59307;50.060;9.150;2023-06-22T10:34:24;8.93;;;6.90;;
71490;SDS011;59307;50.060;9.150;2023-06-22T10:36:50;11.40;;;7.23;;
71490;SDS011;59307;50.060;9.150;2023-06-22T10:39:15;8.97;;;6.87;;
71490;SDS011;59307;50.060;9.150;2023-06-22T10:41:40;9.87;;;7.10;;
71490;SDS011;59307;50.060;9.150;2023-06-22T10:44:05;10.90;;;7.23;;
71490;SDS011;59307;50.060;9.150;2023-06-22T10:46:30;11.50;;;7.23;;
71490;SDS011;59307;50.060;9.150;2023-06-22T10:48:56;11.43;;;7.03;;
71490;SDS011;59307;50.060;9.150;2023-06-22T10:51:23;10.53;;;6.93;;
71490;SDS011;59307;50.060;9.150;2023-06-22T10:53:48;9.55;;;6.75;;
71490;SDS011;59307;50.060;9.150;2023-06-22T10:56:14;10.60;;;6.40;;
71490;SDS011;59307;50.060;9.150;2023-06-22T10:58:39;9.90;;;6.83;;
71490;SDS011;59307;50.060;9.150;2023-06-22T11:01:04;10.97;;;7.20;;
71490;SDS011;59307;50.060;9.150;2023-06-22T11:03:29;9.83;;;7.10;;
71490;SDS011;59307;50.060;9.150;2023-06-22T11:05:54;9.07;;;6.10;;
71490;SDS011;59307;50.060;9.150;2023-06-22T11:08:20;9.63;;;7.43;;
71490;SDS011;59307;50.060;9.150;2023-06-22T11:10:45;12.90;;;8.00;;
71490;SDS011;59307;50.060;9.150;2023-06-22T11:13:10;10.33;;;7.57;;
71490;SDS011;59307;50.060;9.150;2023-06-22T11:15:36;10.43;;;7.30;;
71490;SDS011;59307;50.060;9.150;2023-06-22T11:18:01;10.93;;;7.30;;
71490;SDS011;59307;50.060;9.150;2023-06-22T11:20:26;11.25;;;7.50;;
71490;SDS011;59307;50.060;9.150;2023-06-22T11:22:51;10.23;;;7.30;;
71490;SDS011;59307;50.060;9.150;2023-06-22T11:25:17;10.77;;;7.23;;
71490;SDS011;59307;50.060;9.150;2023-06-22T11:27:42;11.23;;;7.27;;
71490;SDS011;59307;50.060;9.150;2023-06-22T11:30:07;11.63;;;6.90;;
71490;SDS011;59307;50.060;9.150;2023-06-22T11:32:33;11.10;;;6.43;;
71490;SDS011;59307;50.060;9.150;2023-06-22T11:34:58;13.68;;;7.90;;
71490;SDS011;59307;50.060;9.150;2023-06-22T11:37:24;12.00;;;7.57;;
71490;SDS011;59307;50.060;9.150;2023-06-22T11:39:49;11.30;;;7.23;;
71490;SDS011;59307;50.060;9.150;2023-06-22T11:42:14;12.03;;;7.40;;
71490;SDS011;59307;50.060;9.150;2023-06-22T11:44:39;14.43;;;8.03;;
71490;SDS011;59307;50.060;9.150;2023-06-22T11:47:05;10.37;;;7.50;;
71490;SDS011;59307;50.060;9.150;2023-06-22T11:49:30;14.00;;;7.63;;
71490;SDS011;59307;50.060;9.150;2023-06-22T11:51:56;11.30;;;7.82;;
71490;SDS011;59307;50.060;9.150;2023-06-22T11:54:21;14.00;;;7.60;;
71490;SDS011;59307;50.060;9.150;2023-06-22T11:56:46;11.77;;;7.90;;
71490;SDS011;59307;50.060;9.150;2023-06-22T11:59:11;11.97;;;7.53;;
71490;SDS011;59307;50.060;9.150;2023-06-22T12:01:36;13.40;;;7.80;;
71490;SDS011;59307;50.060;9.150;2023-06-22T12:04:02;11.30;;;7.90;;
71490;SDS011;59307;50.060;9.150;2023-06-22T12:06:30;11.53;;;7.80;;
71490;SDS011;59307;50.060;9.150;2023-06-22T12:08:55;13.57;;;8.53;;
71490;SDS011;59307;50.060;9.150;2023-06-22T12:11:20;12.20;;;7.70;;
71490;SDS011;59307;50.060;9.150;2023-06-22T12:13:45;11.27;;;7.47;;
71490;SDS011;59307;50.060;9.150;2023-06-22T12:16:11;12.57;;;7.63;;
71490;SDS011;59307;50.060;9.150;2023-06-22T12:18:37;10.10;;;7.18;;
71490;SDS011;59307;50.060;9.150;2023-06-22T12:21:02;13.63;;;7.60;;
71490;SDS011;59307;50.060;9.150;2023-06-22T12:23:27;12.87;;;7.70;;
71490;SDS011;59307;50.060;9.150;2023-06-22T12:25:52;11.17;;;7.63;;
71490;SDS011;59307;50.060;9.150;2023-06-22T12:28:17;13.57;;;7.30;;
71490;SDS011;59307;50.060;9.150;2023-06-22T12:30:43;16.00;;;7.83;;
71490;SDS011;59307;50.060;9.150;2023-06-22T12:33:08;14.25;;;7.57;;
71490;SDS011;59307;50.060;9.150;2023-06-22T12:35:34;11.30;;;7.47;;
71490;SDS011;59307;50.060;9.150;2023-06-22T12:37:59;14.13;;;7.50;;
71490;SDS011;59307;50.060;9.150;2023-06-22T12:40:24;16.10;;;7.57;;
71490;SDS011;59307;50.060;9.150;2023-06-22T12:42:49;13.23;;;7.70;;
71490;SDS011;59307;50.060;9.150;2023-06-22T12:45:15;10.43;;;6.80;;
71490;SDS011;59307;50.060;9.150;2023-06-22T12:47:40;14.10;;;7.00;;
71490;SDS011;59307;50.060;9.150;2023-06-22T12:50:05;15.00;;;7.17;;
71490;SDS011;59307;50.060;9.150;2023-06-22T12:52:31;12.27;;;6.53;;
71490;SDS011;59307;50.060;9.150;2023-06-22T12:54:57;14.50;;;7.20;;
71490;SDS011;59307;50.060;9.150;2023-06-22T12:57:22;11.60;;;6.90;;
71490;SDS011;59307;50.060;9.150;2023-06-22T12:59:48;15.43;;;7.10;;
71490;SDS011;59307;50.060;9.150;2023-06-22T13:02:13;10.50;;;6.43;;
71490;SDS011;59307;50.060;9.150;2023-06-22T13:04:39;9.73;;;6.70;;
71490;SDS011;59307;50.060;9.150;2023-06-22T13:07:04;11.47;;;6.53;;
71490;SDS011;59307;50.060;9.150;2023-06-22T13:09:29;10.33;;;6.50;;
71490;SDS011;59307;50.060;9.150;2023-06-22T13:11:55;13.73;;;6.93;;
71490;SDS011;59307;50.060;9.150;2023-06-22T13:14:20;15.07;;;7.40;;
71490;SDS011;59307;50.060;9.150;2023-06-22T13:16:45;11.73;;;6.47;;
71490;SDS011;59307;50.060;9.150;2023-06-22T13:19:10;11.27;;;6.07;;
71490;SDS011;59307;50.060;9.150;2023-06-22T13:21:35;15.20;;;6.30;;
71490;SDS011;59307;50.060;9.150;2023-06-22T13:24:01;12.17;;;5.97;;
71490;SDS011;59307;50.060;9.150;2023-06-22T13:26:26;12.35;;;6.22;;
71490;SDS011;59307;50.060;9.150;2023-06-22T13:28:53;8.90;;;5.57;;
71490;SDS011;59307;50.060;9.150;2023-06-22T13:31:18;10.53;;;5.83;;
71490;SDS011;59307;50.060;9.150;2023-06-22T13:33:43;10.53;;;5.73;;
71490;SDS011;59307;50.060;9.150;2023-06-22T13:36:11;11.00;;;5.50;;
71490;SDS011;59307;50.060;9.150;2023-06-22T13:38:36;10.20;;;5.77;;
71490;SDS011;59307;50.060;9.150;2023-06-22T13:41:03;14.63;;;5.95;;
71490;SDS011;59307;50.060;9.150;2023-06-22T13:43:28;11.50;;;5.57;;
71490;SDS011;59307;50.060;9.150;2023-06-22T13:45:53;11.87;;;5.97;;
71490;SDS011;59307;50.060;9.150;2023-06-22T13:48:19;9.30;;;5.90;;
71490;SDS011;59307;50.060;9.150;2023-06-22T13:50:44;10.83;;;5.77;;
71490;SDS011;59307;50.060;9.150;2023-06-22T13:53:09;12.80;;;6.00;;
71490;SDS011;59307;50.060;9.150;2023-06-22T13:55:34;8.90;;;5.23;;
71490;SDS011;59307;50.060;9.150;2023-06-22T13:57:59;11.40;;;5.33;;
71490;SDS011;59307;50.060;9.150;2023-06-22T14:00:25;12.83;;;5.80;;
71490;SDS011;59307;50.060;9.150;2023-06-22T14:02:50;12.03;;;5.00;;
71490;SDS011;59307;50.060;9.150;2023-06-22T14:05:16;11.18;;;5.20;;
71490;SDS011;59307;50.060;9.150;2023-06-22T14:07:41;13.03;;;5.67;;
71490;SDS011;59307;50.060;9.150;2023-06-22T14:10:06;11.73;;;5.33;;
71490;SDS011;59307;50.060;9.150;2023-06-22T14:12:32;11.90;;;5.50;;
71490;SDS011;59307;50.060;9.150;2023-06-22T14:14:57;12.03;;;5.27;;
71490;SDS011;59307;50.060;9.150;2023-06-22T14:17:22;10.17;;;5.27;;
71490;SDS011;59307;50.060;9.150;2023-06-22T14:19:50;13.60;;;5.25;;
71490;SDS011;59307;50.060;9.150;2023-06-22T14:22:17;11.25;;;5.20;;
71490;SDS011;59307;50.060;9.150;2023-06-22T14:24:42;10.83;;;5.40;;
71490;SDS011;59307;50.060;9.150;2023-06-22T14:27:07;11.30;;;5.20;;
71490;SDS011;59307;50.060;9.150;2023-06-22T14:29:34;10.45;;;4.93;;
71490;SDS011;59307;50.060;9.150;2023-06-22T14:31:59;13.50;;;5.37;;
71490;SDS011;59307;50.060;9.150;2023-06-22T14:34:24;12.90;;;5.50;;